Time;durP1;ratioP1;P1;durP2;ratioP2;P2;SDS_P1;SDS_P2;PMS_P1;PMS_P2;Temp;Humidity;BMP_temperature;BMP_pressure;BME280_temperature;BME280_humidity;BME280_pressure;Samples;Min_cycle;Max_cycle;Signal;HPM_P1;HPM_P2
2024/03/19 00:01:38;;;;;;;15.40;11.80;;;;;;;9.40;100.00;153774.00;5057956;28;20855;-76
2024/03/19 00:04:05;;;;;;;20.40;12.50;;;;;;;9.40;100.00;153774.00;5057208;28;20558;-76
2024/03/19 00:06:31;;;;;;;10.90;8.60;;;;;;;9.40;100.00;153772.75;5043748;28;20497;-76
2024/03/19 00:08:58;;;;;;;10.57;9.40;;;;;;;9.44;100.00;153784.38;5043703;28;20453;-76
2024/03/19 00:11:26;;;;;;;13.00;9.77;;;;;;;9.44;100.00;153784.38;5057479;28;20499;-76
2024/03/19 00:13:53;;;;;;;11.57;8.87;;;;;;;9.47;100.00;153792.13;5065309;28;20545;-76
2024/03/19 00:16:20;;;;;;;11.53;8.73;;;;;;;9.50;100.00;153799.91;5063822;28;20469;-76
2024/03/19 00:18:46;;;;;;;16.93;9.77;;;;;;;9.47;100.00;153790.84;5065511;28;20465;-76
2024/03/19 00:21:14;;;;;;;12.40;9.73;;;;;;;9.53;100.00;153807.63;5058411;28;20482;-76
2024/03/19 00:23:41;;;;;;;12.23;10.20;;;;;;;9.52;100.00;153803.78;5065325;28;20543;-76
2024/03/19 00:26:07;;;;;;;12.30;9.77;;;;;;;9.55;100.00;153812.84;5066654;28;20468;-76
2024/03/19 00:28:35;;;;;;;14.20;10.43;;;;;;;9.58;100.00;153819.31;5061073;28;20461;-76
2024/03/19 00:31:02;;;;;;;14.00;10.03;;;;;;;9.52;100.00;153803.78;5041136;28;20456;-76
2024/03/19 00:33:28;;;;;;;12.90;10.60;;;;;;;9.48;100.00;153794.69;5062423;28;20485;-76
2024/03/19 00:35:55;;;;;;;14.70;11.77;;;;;;;9.45;100.00;153786.94;5056812;28;20453;-76
2024/03/19 00:38:22;;;;;;;13.23;10.53;;;;;;;9.40;100.00;153772.75;5062019;28;20896;-76
2024/03/19 00:40:48;;;;;;;12.57;10.33;;;;;;;9.42;100.00;153779.22;5058222;28;20957;-76
2024/03/19 00:43:15;;;;;;;13.40;11.43;;;;;;;9.42;100.00;153779.22;5061080;28;20481;-76
2024/03/19 00:45:43;;;;;;;15.70;12.17;;;;;;;9.42;100.00;153779.22;5054019;28;20451;-76
2024/03/19 00:48:09;;;;;;;14.47;11.13;;;;;;;9.38;100.00;153767.53;5056729;28;20512;-76
2024/03/19 00:50:36;;;;;;;15.00;11.20;;;;;;;9.35;100.00;153761.06;5066362;28;21051;-76
2024/03/19 00:53:03;;;;;;;18.20;13.20;;;;;;;9.34;100.00;153758.50;5059199;28;20813;-76
2024/03/19 00:55:29;;;;;;;17.73;13.80;;;;;;;9.36;100.00;153763.66;5068299;28;20515;-76
2024/03/19 00:57:56;;;;;;;14.73;11.60;;;;;;;9.35;100.00;153759.75;5063631;28;20458;-76
2024/03/19 01:00:22;;;;;;;16.20;12.60;;;;;;;9.33;100.00;153755.91;5066269;28;20510;-76
2024/03/19 01:02:51;;;;;;;17.03;12.53;;;;;;;9.30;100.00;153748.13;5047542;28;20451;-76
2024/03/19 01:05:18;;;;;;;17.87;12.57;;;;;;;9.29;100.00;153745.59;5056777;28;20525;-76
2024/03/19 01:07:45;;;;;;;17.30;13.37;;;;;;;9.32;100.00;153752.03;5046352;28;20826;-76
2024/03/19 01:10:12;;;;;;;16.30;12.80;;;;;;;9.29;100.00;153745.59;5064010;28;20450;-76
2024/03/19 01:12:40;;;;;;;21.13;14.67;;;;;;;9.30;100.00;153748.13;5064311;28;20484;-75
2024/03/19 01:15:08;;;;;;;17.77;13.40;;;;;;;9.27;100.00;153740.38;5063761;28;20458;-76
2024/03/19 01:17:35;;;;;;;14.40;12.93;;;;;;;9.22;100.00;153727.44;5043098;28;20470;-76
2024/03/19 01:20:04;;;;;;;14.67;11.67;;;;;;;9.21;100.00;153724.88;5032495;28;20573;-76
2024/03/19 01:22:30;;;;;;;13.03;10.93;;;;;;;9.16;100.00;153713.22;5062829;28;20458;-76
2024/03/19 01:24:58;;;;;;;15.30;11.90;;;;;;;9.14;100.00;153706.75;5057234;28;20542;-76
2024/03/19 01:27:24;;;;;;;13.93;10.67;;;;;;;9.07;100.00;153688.66;5063015;28;20461;-75
2024/03/19 01:29:51;;;;;;;15.40;11.10;;;;;;;9.03;100.00;153679.59;5063111;28;20457;-76
2024/03/19 01:32:17;;;;;;;12.90;11.17;;;;;;;8.97;100.00;153664.09;5063848;28;20875;-76
2024/03/19 01:34:45;;;;;;;15.20;11.50;;;;;;;8.89;100.00;153642.13;5057888;28;20857;-76
2024/03/19 01:37:12;;;;;;;12.63;10.67;;;;;;;8.84;100.00;153630.44;5059275;28;20447;-75
2024/03/19 01:39:39;;;;;;;16.23;11.97;;;;;;;8.77;100.00;153612.34;5056988;28;20454;-75
2024/03/19 01:42:06;;;;;;;14.57;12.17;;;;;;;8.76;100.00;153608.50;5063669;28;20450;-76
2024/03/19 01:44:32;;;;;;;16.43;12.23;;;;;;;8.74;100.00;153603.28;5063068;28;20547;-76
2024/03/19 01:46:59;;;;;;;19.10;13.47;;;;;;;8.72;100.00;153599.44;5057427;28;20794;-75
2024/03/19 01:49:26;;;;;;;16.27;13.83;;;;;;;8.71;100.00;153595.56;5054632;28;20453;-76
2024/03/19 01:51:53;;;;;;;15.67;11.77;;;;;;;8.64;100.00;153578.75;5056675;28;20481;-75
2024/03/19 01:54:21;;;;;;;15.17;12.53;;;;;;;8.56;100.00;153558.06;5043344;28;20476;-75
2024/03/19 01:56:48;;;;;;;12.90;11.00;;;;;;;8.52;100.00;153549.00;5064757;28;20488;-75
2024/03/19 01:59:15;;;;;;;14.30;11.37;;;;;;;8.65;100.00;153580.03;5060991;28;20884;-75
2024/03/19 02:01:41;;;;;;;14.80;12.60;;;;;;;8.66;100.00;153582.66;5064235;28;20490;-76
2024/03/19 02:04:09;;;;;;;11.60;10.13;;;;;;;8.60;100.00;153568.44;5063803;28;20485;-75
2024/03/19 02:06:35;;;;;;;16.43;11.40;;;;;;;8.48;100.00;153538.69;5055197;28;20485;-75
2024/03/19 02:09:03;;;;;;;11.27;9.57;;;;;;;8.42;100.00;153523.16;5062727;28;20488;-75
2024/03/19 02:11:32;;;;;;;14.27;11.27;;;;;;;8.44;100.00;153527.06;5030509;28;20443;-76
2024/03/19 02:13:59;;;;;;;14.17;10.57;;;;;;;8.37;100.00;153510.22;5052348;28;20490;-75
2024/03/19 02:16:25;;;;;;;12.67;11.20;;;;;;;8.32;100.00;153496.00;5053530;28;20485;-75
2024/03/19 02:18:56;;;;;;;16.23;12.20;;;;;;;8.31;100.00;153493.47;5065567;28;20531;-75
2024/03/19 02:21:23;;;;;;;12.27;10.30;;;;;;;8.28;100.00;153487.00;5047274;28;20455;-75
2024/03/19 02:23:51;;;;;;;14.30;11.57;;;;;;;8.17;100.00;153458.50;5034143;28;20499;-75
2024/03/19 02:26:17;;;;;;;12.73;10.80;;;;;;;8.15;100.00;153453.34;5064388;28;20457;-75
2024/03/19 02:28:44;;;;;;;13.13;11.13;;;;;;;8.20;100.00;153466.28;5057026;28;21110;-75
2024/03/19 02:31:11;;;;;;;15.17;12.40;;;;;;;8.25;100.00;153479.19;5059426;28;20466;-75
2024/03/19 02:33:37;;;;;;;15.03;12.47;;;;;;;8.21;100.00;153468.81;5060653;28;20569;-75
2024/03/19 02:36:04;;;;;;;15.67;12.00;;;;;;;8.20;100.00;153466.28;5052522;28;20462;-75
2024/03/19 02:38:31;;;;;;;15.27;11.87;;;;;;;8.18;100.00;153459.81;5067133;28;20552;-75
2024/03/19 02:40:59;;;;;;;14.83;12.33;;;;;;;8.17;100.00;153458.50;5048227;28;20862;-75
2024/03/19 02:43:25;;;;;;;15.17;12.07;;;;;;;8.16;100.00;153455.91;5064162;28;20988;-75
2024/03/19 02:45:52;;;;;;;14.00;11.43;;;;;;;8.13;100.00;153448.13;5061155;28;20461;-75
2024/03/19 02:48:19;;;;;;;25.13;12.53;;;;;;;8.06;100.00;153430.06;5055719;28;20541;-75
2024/03/19 02:50:46;;;;;;;13.67;11.73;;;;;;;8.09;100.00;153437.81;5057733;28;20458;-75
2024/03/19 02:53:12;;;;;;;13.30;11.73;;;;;;;8.11;100.00;153443.00;5055973;28;20481;-75
2024/03/19 02:55:39;;;;;;;12.53;11.23;;;;;;;8.14;100.00;153450.75;5041861;28;20537;-75
2024/03/19 02:58:07;;;;;;;12.37;10.13;;;;;;;8.18;100.00;153459.81;5056248;28;20465;-75
2024/03/19 03:00:36;;;;;;;12.70;10.27;;;;;;;8.14;100.00;153450.75;5062864;28;20461;-75
2024/03/19 03:03:03;;;;;;;11.33;10.07;;;;;;;8.11;100.00;153443.00;5056840;28;20489;-75
2024/03/19 03:05:30;;;;;;;12.00;9.43;;;;;;;8.13;100.00;153448.13;5039041;28;20521;-75
2024/03/19 03:07:57;;;;;;;11.37;8.93;;;;;;;8.10;100.00;153439.13;5059200;28;20540;-75
2024/03/19 03:10:23;;;;;;;10.83;9.43;;;;;;;8.07;100.00;153432.66;5056370;28;20462;-75
2024/03/19 03:12:50;;;;;;;11.40;9.37;;;;;;;8.04;100.00;153424.91;5061320;28;20479;-75
2024/03/19 03:15:18;;;;;;;10.00;8.70;;;;;;;8.06;100.00;153430.06;5050433;28;20447;-75
2024/03/19 03:17:44;;;;;;;11.90;9.17;;;;;;;8.03;100.00;153421.00;5050518;28;20645;-75
2024/03/19 03:20:12;;;;;;;12.23;10.37;;;;;;;8.01;100.00;153415.84;5056290;28;21012;-75
2024/03/19 03:22:38;;;;;;;10.50;9.17;;;;;;;8.02;100.00;153419.75;5043733;28;20454;-75
2024/03/19 03:25:08;;;;;;;13.77;11.77;;;;;;;7.99;100.00;153412.00;5060622;28;20508;-75
2024/03/19 03:31:31;;;;;;;13.37;12.00;;;;;;;7.97;100.00;153406.78;5059636;28;21022;-75
2024/03/19 03:33:57;;;;;;;14.63;11.90;;;;;;;7.98;100.00;153409.41;5059738;28;20462;-75
2024/03/19 03:36:24;;;;;;;15.73;12.03;;;;;;;7.97;100.00;153406.78;5057864;28;20451;-75
2024/03/19 03:38:50;;;;;;;13.10;10.70;;;;;;;7.95;100.00;153401.63;5063600;28;20554;-75
2024/03/19 03:41:17;;;;;;;13.00;11.17;;;;;;;7.94;100.00;153399.09;5051836;28;20461;-75
2024/03/19 03:43:43;;;;;;;15.30;11.67;;;;;;;7.90;100.00;153388.72;5052190;28;20833;-75
2024/03/19 03:46:10;;;;;;;12.00;10.30;;;;;;;7.88;100.00;153384.88;5059956;28;20523;-75
2024/03/19 03:48:38;;;;;;;11.60;9.37;;;;;;;7.85;100.00;153375.81;5063943;28;20481;-75
2024/03/19 03:51:05;;;;;;;13.10;10.63;;;;;;;7.78;100.00;153357.72;5049839;28;20951;-75
2024/03/19 03:53:31;;;;;;;12.90;10.37;;;;;;;7.81;100.00;153366.75;5037213;28;20588;-75
2024/03/19 03:55:58;;;;;;;13.83;10.00;;;;;;;7.83;100.00;153370.66;5064797;28;20466;-75
2024/03/19 03:58:24;;;;;;;11.73;10.00;;;;;;;7.80;100.00;153364.19;5065873;28;20458;-75
2024/03/19 04:00:51;;;;;;;13.07;10.10;;;;;;;7.79;100.00;153360.28;5055156;28;20868;-75
2024/03/19 04:03:19;;;;;;;13.17;11.30;;;;;;;7.75;100.00;153351.28;5064973;28;20991;-75
2024/03/19 04:05:48;;;;;;;13.03;11.43;;;;;;;7.72;100.00;153342.22;5042607;28;20460;-75
2024/03/19 04:08:15;;;;;;;13.27;10.40;;;;;;;7.69;100.00;153335.75;5060665;28;20594;-75
2024/03/19 04:10:41;;;;;;;11.60;9.60;;;;;;;7.69;100.00;153334.47;5064903;28;20457;-75
2024/03/19 04:13:08;;;;;;;13.57;10.93;;;;;;;7.69;100.00;153334.47;5063884;28;20546;-75
2024/03/19 04:15:34;;;;;;;13.60;10.23;;;;;;;7.67;100.00;153329.31;5055219;28;20438;-75
2024/03/19 04:18:01;;;;;;;11.27;10.07;;;;;;;7.67;100.00;153329.31;5059538;28;20547;-75
2024/03/19 04:20:28;;;;;;;11.53;9.47;;;;;;;7.65;100.00;153325.41;5067057;28;20915;-75
2024/03/19 04:22:56;;;;;;;11.47;10.03;;;;;;;7.60;100.00;153311.25;5068966;28;20450;-75
2024/03/19 04:25:23;;;;;;;12.60;9.60;;;;;;;7.58;100.00;153306.03;5035834;28;20453;-75
2024/03/19 04:27:49;;;;;;;12.40;10.60;;;;;;;7.59;100.00;153309.94;5043035;28;20460;-75
2024/03/19 04:30:16;;;;;;;11.10;9.57;;;;;;;7.55;100.00;153298.28;5062852;28;20462;-75
2024/03/19 04:32:42;;;;;;;10.33;8.33;;;;;;;7.52;100.00;153290.56;5066535;28;22449;-75
2024/03/19 04:35:09;;;;;;;10.70;9.30;;;;;;;7.48;100.00;153281.50;5065928;28;20476;-75
2024/03/19 04:37:35;;;;;;;12.13;10.23;;;;;;;7.53;100.00;153293.13;5064785;28;20466;-75
2024/03/19 04:40:04;;;;;;;13.33;11.70;;;;;;;7.53;100.00;153293.13;5060532;28;21007;-75
2024/03/19 04:42:31;;;;;;;15.20;10.57;;;;;;;7.51;100.00;153287.97;5064206;28;21022;-75
2024/03/19 04:44:57;;;;;;;12.43;11.13;;;;;;;7.51;100.00;153287.97;5059028;28;20558;-75
2024/03/19 04:47:24;;;;;;;12.70;10.53;;;;;;;7.54;100.00;153295.72;5061985;28;20535;-75
2024/03/19 04:49:50;;;;;;;11.30;8.83;;;;;;;7.48;100.00;153281.50;5062082;28;20805;-75
2024/03/19 04:52:17;;;;;;;12.47;9.70;;;;;;;7.44;100.00;153269.91;5066523;28;20465;-75
2024/03/19 04:54:43;;;;;;;12.67;11.17;;;;;;;7.43;100.00;153267.31;5063506;28;20523;-75
2024/03/19 04:57:11;;;;;;;11.10;9.30;;;;;;;7.41;100.00;153262.16;5059912;28;20458;-75
2024/03/19 04:59:38;;;;;;;9.67;8.30;;;;;;;7.48;100.00;153280.22;5053752;28;20454;-75
2024/03/19 05:02:05;;;;;;;9.57;8.20;;;;;;;7.48;100.00;153280.22;5042167;28;20453;-74
2024/03/19 05:04:32;;;;;;;8.77;7.67;;;;;;;7.41;100.00;153262.16;5065895;28;20454;-74
2024/03/19 05:06:58;;;;;;;8.73;7.83;;;;;;;7.41;100.00;153262.16;5055081;28;20500;-75
2024/03/19 05:09:25;;;;;;;10.30;8.80;;;;;;;7.38;100.00;153254.41;5060119;28;20984;-75
2024/03/19 05:11:51;;;;;;;8.17;7.20;;;;;;;7.38;100.00;153255.69;5059142;28;20454;-75
2024/03/19 05:14:20;;;;;;;8.53;7.60;;;;;;;7.38;100.00;153254.41;5029775;28;20470;-75
2024/03/19 05:16:46;;;;;;;9.70;6.83;;;;;;;7.35;100.00;153249.25;5065379;28;20462;-75
2024/03/19 05:19:13;;;;;;;8.77;7.87;;;;;;;7.35;100.00;153247.94;5052402;28;20458;-75
2024/03/19 05:21:39;;;;;;;10.23;8.00;;;;;;;7.33;100.00;153244.03;5044359;28;20466;-75
2024/03/19 05:24:08;;;;;;;8.57;7.53;;;;;;;7.29;100.00;153232.44;5058125;28;20501;-75
2024/03/19 05:26:34;;;;;;;9.70;8.20;;;;;;;7.28;100.00;153231.13;5069549;28;20445;-75
2024/03/19 05:29:01;;;;;;;10.83;9.70;;;;;;;7.25;100.00;153223.38;5067732;28;20453;-75
2024/03/19 05:31:29;;;;;;;11.00;8.73;;;;;;;7.24;100.00;153220.81;5047330;28;20808;-75
2024/03/19 05:33:56;;;;;;;11.30;9.33;;;;;;;7.25;100.00;153222.13;5037121;28;20477;-75
2024/03/19 05:36:23;;;;;;;10.57;8.53;;;;;;;7.25;100.00;153223.38;5061533;28;20451;-75
2024/03/19 05:38:50;;;;;;;10.30;9.17;;;;;;;7.23;100.00;153218.22;5063070;28;20443;-75
2024/03/19 05:41:17;;;;;;;11.47;9.23;;;;;;;7.22;100.00;153215.66;5053192;28;20493;-75
2024/03/19 05:43:43;;;;;;;11.07;9.70;;;;;;;7.21;100.00;153213.06;5032372;28;20525;-74
2024/03/19 05:46:10;;;;;;;11.20;9.00;;;;;;;7.19;100.00;153207.91;5063280;28;20523;-74
2024/03/19 05:48:38;;;;;;;12.60;9.90;;;;;;;7.23;100.00;153218.22;5047541;28;20486;-75
2024/03/19 05:51:05;;;;;;;10.40;9.27;;;;;;;7.24;100.00;153219.53;5068326;28;20458;-74
2024/03/19 05:53:32;;;;;;;11.50;9.30;;;;;;;7.25;100.00;153223.38;5046090;28;20479;-74
2024/03/19 05:55:58;;;;;;;13.40;10.37;;;;;;;7.24;100.00;153220.81;5061313;28;20461;-73
2024/03/19 05:58:25;;;;;;;10.03;8.33;;;;;;;7.24;100.00;153220.81;5063290;28;20527;-73
2024/03/19 06:00:52;;;;;;;9.90;8.60;;;;;;;7.24;100.00;153219.53;5041899;28;20460;-74
2024/03/19 06:03:19;;;;;;;10.40;8.77;;;;;;;7.26;100.00;153225.97;5045558;28;20510;-75
2024/03/19 06:05:46;;;;;;;10.43;8.00;;;;;;;7.26;100.00;153225.97;5047640;28;20451;-75
2024/03/19 06:08:14;;;;;;;10.73;8.97;;;;;;;7.25;100.00;153223.38;5064241;28;20974;-75
2024/03/19 06:10:40;;;;;;;8.80;7.90;;;;;;;7.27;100.00;153227.28;5059928;28;20478;-74
2024/03/19 06:13:07;;;;;;;8.87;7.67;;;;;;;7.28;100.00;153231.13;5042006;28;20449;-74
2024/03/19 06:15:33;;;;;;;9.50;6.80;;;;;;;7.32;100.00;153241.47;5051394;28;20501;-75
2024/03/19 06:18:00;;;;;;;8.90;8.00;;;;;;;7.38;100.00;153254.41;5039112;28;20455;-75
2024/03/19 06:20:27;;;;;;;10.43;8.50;;;;;;;7.42;100.00;153266.00;5063826;28;20527;-75
2024/03/19 06:22:55;;;;;;;11.70;9.27;;;;;;;7.49;100.00;153282.81;5062633;28;20546;-75
2024/03/19 06:25:22;;;;;;;11.50;9.77;;;;;;;7.55;100.00;153298.28;5059494;28;20445;-75
2024/03/19 06:27:49;;;;;;;10.30;8.20;;;;;;;7.63;100.00;153318.94;5063727;28;20458;-75
2024/03/19 06:30:16;;;;;;;10.53;8.40;;;;;;;7.73;100.00;153346.06;5064073;28;20461;-75
2024/03/19 06:32:42;;;;;;;10.37;8.50;;;;;;;7.88;100.00;153384.88;5065299;28;20480;-75
2024/03/19 06:35:09;;;;;;;10.70;9.60;;;;;;;8.04;100.00;153424.91;5063151;28;20532;-75
2024/03/19 06:37:36;;;;;;;11.50;10.17;;;;;;;8.26;100.00;153481.75;5056633;28;20469;-75
2024/03/19 06:40:05;;;;;;;11.80;10.50;;;;;;;8.48;100.00;153537.38;5039198;28;20463;-75
2024/03/19 06:42:31;;;;;;;10.63;9.53;;;;;;;8.69;100.00;153590.38;5060640;28;20836;-75
2024/03/19 06:44:58;;;;;;;10.97;9.40;;;;;;;8.90;100.00;153644.66;5045914;28;20489;-75
2024/03/19 06:47:25;;;;;;;10.60;9.50;;;;;;;9.12;100.00;153701.59;5064929;28;20993;-75
2024/03/19 06:49:53;;;;;;;10.30;9.00;;;;;;;9.32;100.00;153752.03;5063240;28;20454;-75
2024/03/19 06:52:20;;;;;;;9.10;8.00;;;;;;;9.52;100.00;153803.78;5064877;28;20453;-76
2024/03/19 06:54:46;;;;;;;9.10;7.60;;;;;;;9.70;100.00;153851.63;5066510;28;20805;-76
2024/03/19 06:57:17;;;;;;;8.40;7.60;;;;;;;9.90;100.00;153900.81;5064583;28;20485;-76
2024/03/19 06:59:47;;;;;;;9.67;7.37;;;;;;;10.08;100.00;153947.41;5062876;28;20453;-76
2024/03/19 07:02:14;;;;;;;9.90;8.57;;;;;;;10.21;100.00;153982.41;5061746;28;20454;-76
2024/03/19 07:04:40;;;;;;;8.73;7.70;;;;;;;10.37;100.00;154022.53;5054583;28;20438;-76
2024/03/19 07:07:07;;;;;;;7.40;6.70;;;;;;;10.42;100.00;154034.16;5065187;28;21170;-76
2024/03/19 07:09:33;;;;;;;8.33;6.97;;;;;;;10.50;100.00;154056.19;5043695;28;20450;-76
2024/03/19 07:12:00;;;;;;;7.77;6.80;;;;;;;10.57;100.00;154074.31;5038887;28;20496;-75
2024/03/19 07:14:28;;;;;;;8.17;7.30;;;;;;;10.72;100.00;154113.13;5055415;28;20848;-75
2024/03/19 07:16:55;;;;;;;8.50;7.20;;;;;;;10.92;100.00;154164.97;5064894;28;20452;-75
2024/03/19 07:19:22;;;;;;;7.47;6.77;;;;;;;11.10;100.00;154210.28;5051295;28;20990;-75
2024/03/19 07:21:50;;;;;;;8.00;6.70;;;;;;;11.32;100.00;154267.31;5043163;28;20493;-75
2024/03/19 07:24:17;;;;;;;6.37;5.77;;;;;;;11.56;100.00;154328.19;5061803;28;20856;-75
2024/03/19 07:26:44;;;;;;;7.50;6.50;;;;;;;11.71;100.00;154367.09;5041164;28;20462;-75
2024/03/19 07:29:11;;;;;;;6.43;5.73;;;;;;;11.84;100.00;154399.50;5044831;28;20457;-76
2024/03/19 07:31:42;;;;;;;6.70;5.43;;;;;;;11.95;100.00;154429.31;5063802;28;20437;-76
2024/03/19 07:34:18;;;;;;;7.27;5.53;;;;;;;12.25;100.00;154505.81;5064897;28;20470;-76
2024/03/19 07:36:44;;;;;;;6.90;5.77;;;;;;;12.67;100.00;154613.44;5061987;28;20890;-76
2024/03/19 07:39:12;;;;;;;6.67;6.07;;;;;;;12.98;100.00;154692.53;5054212;28;20466;-75
2024/03/19 07:41:39;;;;;;;6.73;6.03;;;;;;;13.37;100.00;154795.09;5063127;28;20545;-75
2024/03/19 07:44:05;;;;;;;9.53;7.07;;;;;;;13.59;100.00;154850.91;5063269;28;20835;-75
2024/03/19 07:46:32;;;;;;;7.33;6.53;;;;;;;13.77;100.00;154896.31;5062615;28;21110;-75
2024/03/19 07:49:00;;;;;;;7.30;5.90;;;;;;;13.68;99.49;154872.97;5062012;28;20440;-75
2024/03/19 07:51:30;;;;;;;6.50;5.90;;;;;;;13.56;99.82;154841.78;5044306;28;20446;-76
2024/03/19 07:53:57;;;;;;;6.03;5.43;;;;;;;13.46;100.00;154815.84;5038000;28;20561;-76
2024/03/19 07:56:24;;;;;;;6.03;5.43;;;;;;;13.41;100.00;154805.50;5061338;28;20784;-75
2024/03/19 07:58:51;;;;;;;6.83;5.57;;;;;;;13.46;100.00;154815.84;5064114;28;20453;-76
2024/03/19 08:01:17;;;;;;;5.73;5.13;;;;;;;13.47;100.00;154819.78;5062240;28;20445;-75
2024/03/19 08:03:45;;;;;;;6.60;5.13;;;;;;;13.45;99.91;154814.53;5043992;28;20527;-75
2024/03/19 08:06:12;;;;;;;5.67;5.17;;;;;;;13.46;100.00;154817.16;5063238;28;20871;-76
2024/03/19 08:08:39;;;;;;;6.03;5.43;;;;;;;13.43;100.00;154810.66;5062826;28;20468;-75
2024/03/19 08:11:05;;;;;;;6.30;5.07;;;;;;;13.42;99.54;154808.06;5053653;28;20458;-75
2024/03/19 08:13:32;;;;;;;6.53;5.93;;;;;;;13.54;99.40;154837.91;5063526;28;20516;-76
2024/03/19 08:15:58;;;;;;;7.07;6.07;;;;;;;13.65;99.45;154866.50;5045354;28;20442;-75
2024/03/19 08:18:25;;;;;;;6.30;5.70;;;;;;;13.63;99.52;154860.00;5038053;28;20454;-76
2024/03/19 08:20:52;;;;;;;5.90;5.30;;;;;;;13.61;99.56;154856.06;5058844;28;20473;-76
2024/03/19 08:23:20;;;;;;;4.90;4.40;;;;;;;13.62;98.53;154857.38;5059199;28;20940;-76
2024/03/19 08:25:47;;;;;;;6.37;4.80;;;;;;;13.62;97.53;154857.38;5062756;28;20493;-75
2024/03/19 08:28:13;;;;;;;5.83;4.97;;;;;;;13.68;98.63;154872.97;5063345;28;20504;-75
2024/03/19 08:30:40;;;;;;;5.33;4.80;;;;;;;13.70;99.46;154878.16;5065209;28;20542;-75
2024/03/19 08:33:08;;;;;;;4.87;4.23;;;;;;;13.66;98.83;154867.78;5041066;28;20458;-75
2024/03/19 08:35:35;;;;;;;7.50;5.47;;;;;;;13.61;99.00;154854.81;5068105;28;20572;-75
2024/03/19 08:38:02;;;;;;;6.43;5.70;;;;;;;13.57;99.13;154844.41;5068489;28;20540;-76
2024/03/19 08:40:32;;;;;;;7.57;6.23;;;;;;;13.58;99.81;154848.28;5063623;28;20453;-75
2024/03/19 08:42:59;;;;;;;6.00;5.07;;;;;;;13.63;100.00;154860.00;5059592;28;20820;-75
2024/03/19 08:45:26;;;;;;;7.73;5.60;;;;;;;13.64;99.73;154863.88;5067227;28;21025;-75
2024/03/19 08:47:52;;;;;;;5.93;5.33;;;;;;;13.74;100.00;154888.56;5063239;28;20827;-75
2024/03/19 08:50:19;;;;;;;6.50;5.63;;;;;;;13.74;99.82;154888.56;5046091;28;20507;-75
2024/03/19 08:52:46;;;;;;;6.60;5.90;;;;;;;13.77;100.00;154896.31;5067711;28;20465;-75
2024/03/19 08:55:13;;;;;;;6.27;5.30;;;;;;;13.76;100.00;154893.75;5047556;28;20556;-75
2024/03/19 08:57:41;;;;;;;5.73;5.13;;;;;;;13.77;100.00;154896.31;5066451;28;21071;-76
2024/03/19 09:00:12;;;;;;;6.47;5.87;;;;;;;13.80;100.00;154904.09;5040974;28;20461;-75
2024/03/19 09:02:39;;;;;;;4.60;4.10;;;;;;;13.72;100.00;154884.63;5042469;28;20523;-75
2024/03/19 09:05:06;;;;;;;3.63;3.10;;;;;;;13.71;100.00;154880.78;5039636;28;20490;-75
2024/03/19 09:07:32;;;;;;;4.07;3.53;;;;;;;13.66;100.00;154867.78;5047332;28;20485;-76
2024/03/19 09:09:59;;;;;;;6.13;3.60;;;;;;;13.69;99.47;154876.84;5066851;28;20831;-76
2024/03/19 09:12:26;;;;;;;4.37;3.97;;;;;;;13.72;98.40;154884.63;5065134;28;20537;-76
2024/03/19 09:14:54;;;;;;;4.33;3.77;;;;;;;13.81;99.76;154906.72;5052234;28;20468;-75
2024/03/19 09:17:21;;;;;;;4.10;3.70;;;;;;;13.84;100.00;154915.81;5065546;28;20463;-75
2024/03/19 09:19:47;;;;;;;4.13;3.63;;;;;;;13.90;99.92;154930.06;5042955;28;20884;-76
2024/03/19 09:22:14;;;;;;;4.83;4.10;;;;;;;13.99;100.00;154954.75;5036915;28;20458;-75
2024/03/19 09:24:41;;;;;;;3.40;3.07;;;;;;;13.95;94.55;154943.09;5049643;28;20832;-75
2024/03/19 09:27:08;;;;;;;3.30;2.60;;;;;;;14.02;91.06;154962.56;5041843;28;20831;-76
2024/03/19 09:29:35;;;;;;;3.20;2.70;;;;;;;14.11;92.61;154983.31;5065669;28;20449;-75
2024/03/19 09:32:04;;;;;;;4.33;2.73;;;;;;;14.10;90.25;154980.72;5063184;28;20599;-75
2024/03/19 09:34:30;;;;;;;3.00;2.70;;;;;;;14.18;92.82;155001.50;5062494;28;20542;-75
2024/03/19 09:36:57;;;;;;;3.70;3.20;;;;;;;14.16;95.17;154997.59;5042294;28;20548;-74
2024/03/19 09:39:24;;;;;;;3.90;2.20;;;;;;;14.08;95.64;154976.84;5064992;28;20453;-75
2024/03/19 09:41:57;;;;;;;3.27;2.90;;;;;;;14.02;92.45;154961.25;5061719;28;20453;-74
2024/03/19 09:44:24;;;;;;;4.87;3.23;;;;;;;14.04;91.56;154966.41;5037241;28;20476;-75
2024/03/19 09:46:52;;;;;;;3.27;2.87;;;;;;;14.15;92.79;154995.00;5063500;28;20536;-75
2024/03/19 09:49:22;;;;;;;3.63;3.20;;;;;;;14.15;92.57;154995.00;5066251;28;20453;-75
2024/03/19 09:51:51;;;;;;;3.53;3.20;;;;;;;14.21;88.76;155009.28;5048051;28;20565;-76
2024/03/19 09:54:17;;;;;;;3.50;3.20;;;;;;;14.22;88.94;155011.84;5046185;28;20813;-75
2024/03/19 09:56:48;;;;;;;4.87;3.57;;;;;;;14.20;88.44;155006.66;5065440;28;20461;-76
2024/03/19 09:59:16;;;;;;;5.13;3.90;;;;;;;14.20;88.88;155007.97;5060496;28;20458;-75
2024/03/19 10:01:43;;;;;;;4.60;4.20;;;;;;;14.18;89.37;155002.78;5063192;28;20454;-75
2024/03/19 10:04:14;;;;;;;4.43;4.03;;;;;;;14.18;91.51;155002.78;5021454;28;20550;-74
2024/03/19 10:06:42;;;;;;;4.83;4.43;;;;;;;14.16;90.53;154997.59;5065227;28;20485;-74
2024/03/19 10:09:08;;;;;;;4.50;3.90;;;;;;;14.05;87.81;154969.03;5040637;28;20454;-74
2024/03/19 10:11:35;;;;;;;5.50;4.40;;;;;;;13.81;88.90;154906.72;5040861;28;20461;-74
2024/03/19 10:14:02;;;;;;;4.90;4.40;;;;;;;13.80;88.24;154905.41;5040495;28;20470;-74
2024/03/19 10:16:29;;;;;;;4.83;4.33;;;;;;;13.78;88.21;154898.91;5063397;28;20475;-74
2024/03/19 10:18:56;;;;;;;4.87;4.47;;;;;;;13.65;88.46;154865.19;5038524;28;20465;-74
2024/03/19 10:21:23;;;;;;;6.30;4.30;;;;;;;13.53;88.69;154834.06;5025518;28;20536;-74
2024/03/19 10:23:51;;;;;;;6.73;4.27;;;;;;;13.52;89.37;154831.44;5056425;28;20990;-75
2024/03/19 10:26:18;;;;;;;6.67;5.23;;;;;;;13.56;90.30;154841.78;5061816;28;20508;-74
2024/03/19 10:28:46;;;;;;;4.80;4.10;;;;;;;13.56;90.04;154843.09;5040719;28;20461;-74
2024/03/19 10:31:13;;;;;;;6.20;4.63;;;;;;;13.65;89.65;154866.50;5063768;28;20442;-75
2024/03/19 10:33:40;;;;;;;6.70;4.87;;;;;;;13.69;89.75;154876.84;5063315;28;20457;-75
2024/03/19 10:36:08;;;;;;;5.27;4.77;;;;;;;13.83;91.73;154913.22;5044527;28;20470;-75
2024/03/19 10:38:34;;;;;;;4.93;4.30;;;;;;;13.92;91.61;154935.28;5038080;28;20468;-74
2024/03/19 10:41:02;;;;;;;7.80;6.00;;;;;;;13.90;89.64;154930.06;5062275;28;20454;-75
2024/03/19 10:43:29;;;;;;;5.80;4.87;;;;;;;13.87;89.26;154922.31;5062707;28;20486;-75
2024/03/19 10:45:57;;;;;;;5.33;4.60;;;;;;;13.91;88.29;154932.66;5063177;28;20838;-75
2024/03/19 10:48:24;;;;;;;4.73;4.10;;;;;;;13.90;88.60;154931.38;5038728;28;20846;-74
2024/03/19 10:50:51;;;;;;;6.33;5.73;;;;;;;13.95;88.22;154943.09;5063917;28;20798;-75
2024/03/19 10:53:20;;;;;;;5.00;4.47;;;;;;;14.06;89.95;154971.59;5042163;28;20465;-74
2024/03/19 10:55:50;;;;;;;6.57;5.20;;;;;;;14.08;88.58;154976.84;5042971;28;20485;-75
2024/03/19 10:58:22;;;;;;;5.77;5.10;;;;;;;14.10;87.24;154982.03;5046960;28;20527;-75
2024/03/19 11:00:49;;;;;;;5.70;5.00;;;;;;;14.06;88.12;154971.59;5037930;28;20446;-75
2024/03/19 11:03:16;;;;;;;4.67;4.20;;;;;;;14.06;87.61;154971.59;5062828;28;20457;-75
2024/03/19 11:05:45;;;;;;;6.47;4.10;;;;;;;14.05;86.13;154969.03;5052689;28;20471;-75
2024/03/19 11:08:12;;;;;;;4.93;3.90;;;;;;;14.10;87.54;154982.03;5063809;28;20497;-75
2024/03/19 11:10:39;;;;;;;5.00;4.50;;;;;;;14.11;87.67;154984.59;5062498;28;20438;-74
2024/03/19 11:13:07;;;;;;;6.47;4.37;;;;;;;14.16;88.41;154997.59;5040788;28;20460;-75
2024/03/19 11:15:35;;;;;;;4.10;3.70;;;;;;;14.26;87.34;155023.56;5045782;28;20479;-74
2024/03/19 11:18:06;;;;;;;5.40;4.20;;;;;;;14.27;88.03;155024.88;5062201;28;20449;-75
2024/03/19 11:20:34;;;;;;;5.03;4.43;;;;;;;14.23;86.08;155015.78;5040105;28;21021;-74